Austell, GA (30168)

3:30 AM EDT on September 16, 2014 (GMT -0400)
Werner Ent. Atlanta | Change Station
CLOSE
Current Station
Personal Weather Station
Location: Lithia Springs, GA
Elevation: 912 ft
Nearby Weather Stations

Elev 912 ft 33.77 °N, 84.62 °W | Updated 8 minutes ago

Mostly Cloudy
Mostly Cloudy
72.5 °F
Feels Like 72.5 °F
N
0.0
Wind Variable Wind from South
Gusts 1.0 mph

Today
High -- | Low -- °F
--% Chance of Precip.
Yesterday
High -- | Low -- °F
Precip. -- in
7:22 AM 7:43 PM
Waning Gibbous, 48% visible
Pressure 30.08 in
Visibility 7.0 miles
Clouds Mostly Cloudy 1700 ft
Dew Point 70 °F
Humidity 93%
Rainfall 0.00 in
Snow Depth Not available.
UV 0.0 out of 12
Pollen 7.50 out of 12
Ozone Good
PM2.5 Moderate
Flu Activity Not available.
METAR KFTY 160653Z 00000KT 7SM BKN017 22/21 A3010 RMK AO2 SLP185 T02220211

More Conditions Fewer Conditions

Pressure 30.08 in
Visibility 7.0 miles
Clouds Mostly Cloudy 1700 ft
Dew Point 70 °F
Humidity 93%
Rainfall 0.00 in
Snow Depth Not available.
UV 0.0 out of 12
Pollen 7.50 out of 12
Ozone Good
PM2.5 Moderate
Flu Activity Not available.
METAR KFTY 160653Z 00000KT 7SM BKN017 22/21 A3010 RMK AO2 SLP185 T02220211

More Conditions Fewer Conditions

10-Day Weather Forecast

Almanac

Astronomy

Sep. 16, 2014 Rise Set
Actual Time 7:22 AM EDT 7:43 PM EDT
Civil Twilight 6:57 AM EDT 8:08 PM EDT
Nautical Twilight 6:28 AM EDT 8:37 PM EDT
Astronomical Twilight 5:58 AM EDT 9:07 PM EDT
Moon 12:43 AM EDT 2:54 PM EDT
Length of Visible Light 13h 11m
Length of Day
12h 21m
Tomorrow will be 2m 5s shorter.
Waning Gibbous, 48% of the Moon is Illuminated
Today
Waning Gibbous
Sep 24
New
Oct 1
First Quarter
Oct 8
Full
Oct 15
Last Quarter

Today's Extremes

State Highs State Lows

Community

WunderPhotos

Upload Photos

1,753,713 photos uploaded!

Nearby

Air Quality

  Air Quality AQ Index Pollutant
Yesterday Good
PM10
Yesterday Good
OZONE
Current Moderate
PM2.5
Current Good
OZONE
Tuesday Good
OZONE
Tuesday Good
PM2.5

Snow Depth

Station Depth Elevation
No new snow has been reported.

Earthquake Activity

City Distance Mag. Time & Date
No recent earthquake activity has been reported nearby.
Minimum magnitude displayed is 2.5.

Coastal Water Temperatures

Place Temperature
No Stations Reporting

Nearby Weather Stations